Terminal Aerodrome Forecast
Issued by NWS

Home | Current Version | Previous Version | Text Only | Print | Product List | Glossary On
Versions: 1 2 3 4 5 6 7 8 9 10 11 12 13 14 15 16 17
371
FTUS44 KLZK 090203 AAA
TAFLIT
TAF AMD
KLIT 090203Z 0902/0924 30008G15KT P6SM SCT060
     FM091500 31012G24KT P6SM SKC=

USA.gov is the U.S. government's official web portal to all federal, state and local government web resources and services.